createdAt,value
2023-03-25T00:00:22.537Z,4.8
2023-03-25T00:01:30.869Z,4.8
2023-03-25T00:02:39.468Z,4.4
2023-03-25T00:03:47.759Z,4.4
2023-03-25T00:04:56.179Z,4.4
2023-03-25T00:06:04.745Z,4.3
2023-03-25T00:07:13.080Z,4.3
2023-03-25T00:08:21.405Z,4.3
2023-03-25T00:09:29.954Z,4.1
2023-03-25T00:10:38.317Z,4.1
2023-03-25T00:11:46.657Z,4.1
2023-03-25T00:12:55.185Z,3.8
2023-03-25T00:14:03.511Z,3.8
2023-03-25T00:15:11.869Z,3.8
2023-03-25T00:16:20.428Z,3.8
2023-03-25T00:17:28.805Z,3.8
2023-03-25T00:18:37.115Z,3.8
2023-03-25T00:19:45.640Z,3.8
2023-03-25T00:20:54.009Z,3.8
2023-03-25T00:22:02.347Z,3.8
2023-03-25T00:23:10.904Z,3.5
2023-03-25T00:24:19.267Z,3.5
2023-03-25T00:25:27.586Z,3.5
2023-03-25T00:26:36.148Z,3.4
2023-03-25T00:27:44.436Z,3.4
2023-03-25T00:28:52.791Z,3.4
2023-03-25T00:30:01.380Z,3.2
2023-03-25T00:31:09.757Z,3.2
2023-03-25T00:32:18.009Z,3.2
2023-03-25T00:33:26.585Z,2.7
2023-03-25T00:34:34.953Z,2.7
2023-03-25T00:35:43.310Z,2.7
2023-03-25T00:36:51.844Z,2.6
2023-03-25T00:38:00.359Z,2.6
2023-03-25T00:39:08.595Z,2.6
2023-03-25T00:40:17.120Z,2.3
2023-03-25T00:41:25.507Z,2.3
2023-03-25T00:42:33.836Z,2.3
2023-03-25T00:43:42.401Z,2
2023-03-25T00:44:50.726Z,2
2023-03-25T00:45:59.075Z,2
2023-03-25T00:47:07.599Z,2.1
2023-03-25T00:48:15.933Z,2.1
2023-03-25T00:49:24.262Z,2.1
2023-03-25T00:50:32.814Z,1.8
2023-03-25T00:51:52.200Z,1.8
2023-03-25T00:52:49.494Z,1.8
2023-03-25T00:53:58.018Z,1.9
2023-03-25T00:55:06.373Z,1.9
2023-03-25T00:56:14.688Z,1.9
2023-03-25T00:57:23.247Z,1.7
2023-03-25T00:58:31.588Z,1.7
2023-03-25T00:59:39.913Z,1.7
2023-03-25T01:00:48.454Z,1.8
2023-03-25T01:01:56.831Z,1.8
2023-03-25T01:03:05.160Z,1.8
2023-03-25T01:04:13.697Z,1.8
2023-03-25T01:05:22.038Z,1.8
2023-03-25T01:06:30.393Z,1.8
2023-03-25T01:07:38.914Z,1.8
2023-03-25T01:08:47.270Z,1.8
2023-03-25T01:09:55.602Z,1.8
2023-03-25T01:11:04.128Z,1.6
2023-03-25T01:12:12.494Z,1.6
2023-03-25T01:13:20.830Z,1.6
2023-03-25T01:14:29.404Z,1.8
2023-03-25T01:15:37.749Z,1.8
2023-03-25T01:16:46.093Z,1.8
2023-03-25T01:17:54.676Z,1.3
2023-03-25T01:19:02.963Z,1.3
2023-03-25T01:20:11.312Z,1.3
2023-03-25T01:21:19.883Z,1.7
2023-03-25T01:22:28.220Z,1.7
2023-03-25T01:23:36.540Z,1.7
2023-03-25T01:24:45.107Z,1.2
2023-03-25T01:25:53.458Z,1.2
2023-03-25T01:27:01.783Z,1.2
2023-03-25T01:28:10.314Z,1.6
2023-03-25T01:29:18.659Z,1.6
2023-03-25T01:30:27.107Z,1.6
2023-03-25T01:31:35.639Z,1.1
2023-03-25T01:32:43.942Z,1.1
2023-03-25T01:33:52.290Z,1.1
2023-03-25T01:35:00.841Z,1.2
2023-03-25T01:36:09.216Z,1.2
2023-03-25T01:37:17.561Z,1.2
2023-03-25T01:38:26.098Z,1.3
2023-03-25T01:39:34.442Z,1.3
2023-03-25T01:40:42.747Z,1.3
2023-03-25T01:41:51.577Z,1.2
2023-03-25T01:42:59.621Z,1.2
2023-03-25T01:44:07.948Z,1.2
2023-03-25T01:45:16.517Z,1
2023-03-25T01:46:24.878Z,1
2023-03-25T01:47:33.200Z,1
2023-03-25T01:48:41.718Z,1.3
2023-03-25T01:49:50.062Z,1.3
2023-03-25T01:50:58.399Z,1.3
2023-03-25T01:52:06.924Z,1.4
2023-03-25T01:53:15.302Z,1.4
2023-03-25T01:54:23.631Z,1.4
2023-03-25T01:55:32.206Z,1.2
2023-03-25T01:56:40.562Z,1.2
2023-03-25T01:57:48.811Z,1.2
2023-03-25T01:58:57.348Z,1.6
2023-03-25T02:00:05.700Z,1.6
2023-03-25T02:01:14.059Z,1.6
2023-03-25T02:02:22.687Z,1.4
2023-03-25T02:03:30.989Z,1.4
2023-03-25T02:04:39.522Z,1.4
2023-03-25T02:05:47.857Z,1.3
2023-03-25T02:06:56.184Z,1.3
2023-03-25T02:08:04.516Z,1.3
2023-03-25T02:09:13.078Z,1.4
2023-03-25T02:10:21.449Z,1.4
2023-03-25T02:11:29.934Z,1.4
2023-03-25T02:12:38.349Z,1.4
2023-03-25T02:13:46.661Z,1.4
2023-03-25T02:14:55.008Z,1.4
2023-03-25T02:16:03.573Z,1.4
2023-03-25T02:17:11.889Z,1.4
2023-03-25T02:18:20.255Z,1.4
2023-03-25T02:19:28.793Z,1.4
2023-03-25T02:20:37.134Z,1.4
2023-03-25T02:21:45.482Z,1.4
2023-03-25T02:22:54.001Z,1.3
2023-03-25T02:24:02.329Z,1.3
2023-03-25T02:25:10.665Z,1.3
2023-03-25T02:26:19.216Z,1.3
2023-03-25T02:27:27.709Z,1.3
2023-03-25T02:28:35.856Z,1.3
2023-03-25T02:29:44.405Z,1.3
2023-03-25T02:30:52.819Z,1.3
2023-03-25T02:32:01.114Z,1.3
2023-03-25T02:33:09.667Z,0.9
2023-03-25T02:34:18.004Z,0.9
2023-03-25T02:35:26.362Z,0.9
2023-03-25T02:36:34.849Z,0.9
2023-03-25T02:37:43.170Z,0.9
2023-03-25T02:38:51.490Z,0.9
2023-03-25T02:40:00.086Z,0.9
2023-03-25T02:41:08.383Z,0.9
2023-03-25T02:42:16.700Z,0.9
2023-03-25T02:43:25.237Z,1.2
2023-03-25T02:44:33.593Z,1.2
2023-03-25T02:45:42.014Z,1.2
2023-03-25T02:46:50.489Z,1
2023-03-25T02:47:58.817Z,1
2023-03-25T02:49:07.131Z,1
2023-03-25T02:50:15.713Z,0.9
2023-03-25T02:51:24.022Z,0.9
2023-03-25T02:52:32.360Z,0.9
2023-03-25T02:53:40.908Z,1
2023-03-25T02:54:49.223Z,1
2023-03-25T02:55:57.567Z,1
2023-03-25T02:57:06.155Z,1.3
2023-03-25T02:58:14.429Z,1.3
2023-03-25T02:59:22.768Z,1.3
2023-03-25T03:00:31.299Z,1.4
2023-03-25T03:01:39.645Z,1.4
2023-03-25T03:02:48.035Z,1.4
2023-03-25T03:03:56.504Z,1.2
2023-03-25T03:05:04.863Z,1.2
2023-03-25T03:06:13.207Z,1.2
2023-03-25T03:07:21.737Z,1.3
2023-03-25T03:08:30.066Z,1.3
2023-03-25T03:09:38.399Z,1.3
2023-03-25T03:10:46.946Z,1.2
2023-03-25T03:11:55.272Z,1.2
2023-03-25T03:13:03.611Z,1.2
2023-03-25T03:14:12.167Z,0.9
2023-03-25T03:15:20.510Z,0.9
2023-03-25T03:16:28.852Z,0.9
2023-03-25T03:17:37.514Z,0.7
2023-03-25T03:18:45.759Z,0.7
2023-03-25T03:19:54.096Z,0.7
2023-03-25T03:21:02.641Z,0.3
2023-03-25T03:22:11.029Z,0.3
2023-03-25T03:23:19.332Z,0.3
2023-03-25T03:24:27.892Z,0.2
2023-03-25T03:25:36.235Z,0.2
2023-03-25T03:26:44.558Z,0.2
2023-03-25T03:27:53.096Z,0.3
2023-03-25T03:29:01.423Z,0.3
2023-03-25T03:30:09.769Z,0.3
2023-03-25T03:31:48.106Z,0.3
2023-03-25T03:32:26.728Z,0.3
2023-03-25T03:33:34.979Z,0.3
2023-03-25T03:34:43.541Z,0.2
2023-03-25T03:35:52.071Z,0.2
2023-03-25T03:37:00.207Z,0.2
2023-03-25T03:38:08.766Z,0.5
2023-03-25T03:39:17.099Z,0.5
2023-03-25T03:40:25.405Z,0.5
2023-03-25T03:41:33.969Z,0.2
2023-03-25T03:42:42.300Z,0.2
2023-03-25T03:43:50.615Z,0.2
2023-03-25T03:44:59.164Z,0.3
2023-03-25T03:46:07.513Z,0.3
2023-03-25T03:47:15.815Z,0.3
2023-03-25T03:48:24.370Z,0.4
2023-03-25T03:49:32.695Z,0.4
2023-03-25T03:50:41.024Z,0.4
2023-03-25T03:51:49.551Z,0.3
2023-03-25T03:52:57.869Z,0.3
2023-03-25T03:54:06.231Z,0.3
2023-03-25T03:55:14.748Z,0.4
2023-03-25T03:56:23.086Z,0.4
2023-03-25T03:57:31.415Z,0.4
2023-03-25T03:58:39.932Z,0.5
2023-03-25T03:59:48.268Z,0.5
2023-03-25T04:00:56.602Z,0.5
2023-03-25T04:02:05.159Z,0.4
2023-03-25T04:03:13.518Z,0.4
2023-03-25T04:04:21.810Z,0.4
2023-03-25T04:05:30.359Z,0.3
2023-03-25T04:06:38.743Z,0.3
2023-03-25T04:07:47.030Z,0.3
2023-03-25T04:08:55.561Z,0.6
2023-03-25T04:10:03.915Z,0.6
2023-03-25T04:11:12.242Z,0.6
2023-03-25T04:12:20.782Z,0.5
2023-03-25T04:13:29.118Z,0.5
2023-03-25T04:14:37.459Z,0.5
2023-03-25T04:15:46.015Z,0.6
2023-03-25T04:16:54.347Z,0.6
2023-03-25T04:18:02.656Z,0.6
2023-03-25T04:19:11.186Z,0.6
2023-03-25T04:20:19.503Z,0.6
2023-03-25T04:21:27.816Z,0.6
2023-03-25T04:22:36.346Z,0.6
2023-03-25T04:23:44.685Z,0.6
2023-03-25T04:24:53.096Z,0.6
2023-03-25T04:26:01.567Z,0.7
2023-03-25T04:27:09.873Z,0.7
2023-03-25T04:28:18.206Z,0.7
2023-03-25T04:29:26.748Z,0.6
2023-03-25T04:30:35.067Z,0.6
2023-03-25T04:31:43.411Z,0.6
2023-03-25T04:32:51.959Z,0.8
2023-03-25T04:34:00.236Z,0.8
2023-03-25T04:35:08.565Z,0.8
2023-03-25T04:36:17.168Z,0.8
2023-03-25T04:37:25.416Z,0.8
2023-03-25T04:38:33.772Z,0.8
2023-03-25T04:39:42.260Z,0.8
2023-03-25T04:40:50.578Z,0.8
2023-03-25T04:41:58.898Z,0.8
2023-03-25T04:43:07.389Z,0.7
2023-03-25T04:44:15.689Z,0.7
2023-03-25T04:45:24.024Z,0.7
2023-03-25T04:46:32.543Z,0.9
2023-03-25T04:47:40.851Z,0.9
2023-03-25T04:48:49.165Z,0.9
2023-03-25T04:49:57.702Z,0.8
2023-03-25T04:51:06.024Z,0.8
2023-03-25T04:52:14.330Z,0.8
2023-03-25T04:53:22.893Z,0.9
2023-03-25T04:54:31.228Z,0.9
2023-03-25T04:55:39.555Z,0.9
2023-03-25T04:56:48.115Z,0.9
2023-03-25T04:57:56.411Z,0.9
2023-03-25T04:59:04.710Z,0.9
2023-03-25T05:00:13.259Z,0.9
2023-03-25T05:01:21.612Z,0.9
2023-03-25T05:02:29.938Z,0.9
2023-03-25T05:03:38.471Z,1.1
2023-03-25T05:04:46.805Z,1.1
2023-03-25T05:05:55.165Z,1.1
2023-03-25T05:07:03.663Z,0.9
2023-03-25T05:08:11.998Z,0.9
2023-03-25T05:09:20.335Z,0.9
2023-03-25T05:10:28.894Z,1
2023-03-25T05:11:37.193Z,1
2023-03-25T05:12:45.512Z,1
2023-03-25T05:13:54.047Z,1.2
2023-03-25T05:15:02.357Z,1.2
2023-03-25T05:16:10.730Z,1.2
2023-03-25T05:17:19.221Z,1.1
2023-03-25T05:18:27.555Z,1.1
2023-03-25T05:19:35.909Z,1.1
2023-03-25T05:20:44.453Z,1.1
2023-03-25T05:21:52.781Z,1.1
2023-03-25T05:23:01.134Z,1.1
2023-03-25T05:24:09.668Z,1.3
2023-03-25T05:25:17.988Z,1.3
2023-03-25T05:26:26.322Z,1.3
2023-03-25T05:27:34.830Z,1.2
2023-03-25T05:28:43.162Z,1.2
2023-03-25T05:29:51.509Z,1.2
2023-03-25T05:31:00.034Z,1.3
2023-03-25T05:32:08.422Z,1.3
2023-03-25T05:33:16.742Z,1.3
2023-03-25T05:34:25.266Z,1.4
2023-03-25T05:35:33.610Z,1.4
2023-03-25T05:36:42.025Z,1.4
2023-03-25T05:37:50.482Z,1.3
2023-03-25T05:38:58.819Z,1.3
2023-03-25T05:40:14.406Z,1.3
2023-03-25T05:41:15.700Z,1.3
2023-03-25T05:42:24.033Z,1.3
2023-03-25T05:43:32.341Z,1.3
2023-03-25T05:44:40.959Z,1.1
2023-03-25T05:45:49.453Z,1.1
2023-03-25T05:46:59.284Z,1.1
2023-03-25T05:48:06.185Z,0.7
2023-03-25T05:49:14.516Z,0.7
2023-03-25T05:50:22.842Z,0.7
2023-03-25T05:51:31.364Z,1.1
2023-03-25T05:52:39.690Z,1.1
2023-03-25T05:53:48.025Z,1.1
2023-03-25T05:54:56.556Z,0.8
2023-03-25T05:56:04.867Z,0.8
2023-03-25T05:57:13.209Z,0.8
2023-03-25T05:58:21.689Z,1.1
2023-03-25T05:59:29.999Z,1.1
2023-03-25T06:00:38.288Z,1.1
2023-03-25T06:01:46.830Z,0.5
2023-03-25T06:02:55.150Z,0.5
2023-03-25T06:04:03.566Z,0.5
2023-03-25T06:05:11.986Z,0.5
2023-03-25T06:06:20.284Z,0.5
2023-03-25T06:07:28.602Z,0.5
2023-03-25T06:08:37.137Z,0.7
2023-03-25T06:09:45.470Z,0.7
2023-03-25T06:10:53.766Z,0.7
2023-03-25T06:12:02.289Z,0.6
2023-03-25T06:13:10.618Z,0.6
2023-03-25T06:14:18.925Z,0.6
2023-03-25T06:15:27.436Z,0.4
2023-03-25T06:16:35.950Z,0.4
2023-03-25T06:17:44.107Z,0.4
2023-03-25T06:18:52.574Z,0.5
2023-03-25T06:20:00.899Z,0.5
2023-03-25T06:21:09.198Z,0.5
2023-03-25T06:22:17.723Z,0.6
2023-03-25T06:23:26.032Z,0.6
2023-03-25T06:24:34.330Z,0.6
2023-03-25T06:25:42.833Z,0.8
2023-03-25T06:26:51.141Z,0.8
2023-03-25T06:27:59.437Z,0.8
2023-03-25T06:29:07.965Z,1.1
2023-03-25T06:30:16.293Z,1.1
2023-03-25T06:31:24.604Z,1.1
2023-03-25T06:32:33.105Z,1
2023-03-25T06:33:42.276Z,1
2023-03-25T06:34:49.718Z,1
2023-03-25T06:35:58.262Z,0.9
2023-03-25T06:37:06.546Z,0.9
2023-03-25T06:38:14.826Z,0.9
2023-03-25T06:39:23.350Z,1.1
2023-03-25T06:40:31.651Z,1.1
2023-03-25T06:41:39.958Z,1.1
2023-03-25T06:42:48.459Z,1.2
2023-03-25T06:43:56.752Z,1.2
2023-03-25T06:45:05.071Z,1.2
2023-03-25T06:46:13.634Z,1.2
2023-03-25T06:47:21.904Z,1.2
2023-03-25T06:48:30.190Z,1.2
2023-03-25T06:49:38.738Z,1.1
2023-03-25T06:50:47.004Z,1.1
2023-03-25T06:51:55.307Z,1.1
2023-03-25T06:53:03.823Z,1.4
2023-03-25T06:54:12.121Z,1.4
2023-03-25T06:55:20.439Z,1.4
2023-03-25T06:56:28.967Z,0.9
2023-03-25T06:57:37.257Z,0.9
2023-03-25T06:58:45.550Z,0.9
2023-03-25T06:59:54.104Z,1.1
2023-03-25T07:01:02.373Z,1.1
2023-03-25T07:02:10.720Z,1.1
2023-03-25T07:03:19.182Z,1.2
2023-03-25T07:04:27.494Z,1.2
2023-03-25T07:05:35.834Z,1.2
2023-03-25T07:06:44.308Z,1.3
2023-03-25T07:07:52.594Z,1.3
2023-03-25T07:09:00.908Z,1.3
2023-03-25T07:10:09.426Z,2
2023-03-25T07:11:17.714Z,2
2023-03-25T07:12:26.015Z,2
2023-03-25T07:13:34.531Z,3.2
2023-03-25T07:14:42.848Z,3.2
2023-03-25T07:15:51.332Z,3.2
2023-03-25T07:16:59.690Z,2.7
2023-03-25T07:18:08.039Z,2.7
2023-03-25T07:19:16.292Z,2.7
2023-03-25T07:20:24.808Z,2.8
2023-03-25T07:21:33.125Z,2.8
2023-03-25T07:22:41.403Z,2.8
2023-03-25T07:23:49.908Z,4.1
2023-03-25T07:24:58.240Z,4.1
2023-03-25T07:26:06.548Z,4.1
2023-03-25T07:27:15.078Z,2
2023-03-25T07:28:23.355Z,2
2023-03-25T07:29:31.663Z,2
2023-03-25T07:30:40.186Z,2.2
2023-03-25T07:31:48.520Z,2.2
2023-03-25T07:32:56.852Z,2.2
2023-03-25T07:34:05.335Z,2.5
2023-03-25T07:35:13.645Z,2.5
2023-03-25T07:36:21.952Z,2.5
2023-03-25T07:37:30.482Z,2.7
2023-03-25T07:38:38.756Z,2.7
2023-03-25T07:39:47.057Z,2.7
2023-03-25T07:40:55.563Z,2.1
2023-03-25T07:42:03.850Z,2.1
2023-03-25T07:43:12.157Z,2.1
2023-03-25T07:44:20.676Z,1.4
2023-03-25T07:45:28.995Z,1.4
2023-03-25T07:46:37.338Z,1.4
2023-03-25T07:47:45.853Z,0.8
2023-03-25T07:48:54.165Z,0.8
2023-03-25T07:50:02.491Z,0.8
2023-03-25T07:51:11.021Z,1
2023-03-25T07:52:19.338Z,1
2023-03-25T07:53:27.714Z,1
2023-03-25T07:54:36.233Z,0.9
2023-03-25T07:55:44.559Z,0.9
2023-03-25T07:56:52.974Z,0.9
2023-03-25T07:58:01.421Z,1
2023-03-25T07:59:09.749Z,1
2023-03-25T08:00:18.077Z,1
2023-03-25T08:01:26.601Z,2.8
2023-03-25T08:02:34.981Z,2.8
2023-03-25T08:03:43.357Z,2.8
2023-03-25T08:04:51.824Z,0.9
2023-03-25T08:06:00.160Z,0.9
2023-03-25T08:07:08.517Z,0.9
2023-03-25T08:08:17.068Z,1.6
2023-03-25T08:09:26.312Z,1.6
2023-03-25T08:10:34.634Z,1.6
2023-03-25T08:11:43.170Z,1.5
2023-03-25T08:12:51.510Z,1.5
2023-03-25T08:13:59.825Z,1.5
2023-03-25T08:15:08.357Z,1.9
2023-03-25T08:16:16.711Z,1.9
2023-03-25T08:17:25.049Z,1.9
2023-03-25T08:18:33.523Z,1.4
2023-03-25T08:19:41.862Z,1.4
2023-03-25T08:20:50.238Z,1.4
2023-03-25T08:21:58.759Z,1.9
2023-03-25T08:23:07.084Z,1.9
2023-03-25T08:24:15.407Z,1.9
2023-03-25T08:25:23.956Z,4.1
2023-03-25T08:26:32.217Z,4.1
2023-03-25T08:27:40.548Z,4.1
2023-03-25T08:28:49.081Z,1.6
2023-03-25T08:29:57.420Z,1.6
2023-03-25T08:31:05.750Z,1.6
2023-03-25T08:32:14.269Z,1.2
2023-03-25T08:33:22.589Z,1.2
2023-03-25T08:34:30.925Z,1.2
2023-03-25T08:35:39.477Z,1.1
2023-03-25T08:36:47.801Z,1.1
2023-03-25T08:37:56.146Z,1.1
2023-03-25T08:39:04.679Z,1.3
2023-03-25T08:40:12.998Z,1.3
2023-03-25T08:41:21.353Z,1.3
2023-03-25T08:42:29.896Z,1.8
2023-03-25T08:43:38.238Z,1.8
2023-03-25T08:44:46.570Z,1.8
2023-03-25T08:45:55.227Z,0.8
2023-03-25T08:47:03.436Z,0.8
2023-03-25T08:48:11.708Z,0.8
2023-03-25T08:49:20.219Z,2.6
2023-03-25T08:50:28.541Z,2.6
2023-03-25T08:51:36.837Z,2.6
2023-03-25T08:52:45.356Z,1.9
2023-03-25T08:53:53.688Z,1.9
2023-03-25T08:55:02.010Z,1.9
2023-03-25T08:56:10.544Z,1.2
2023-03-25T08:57:18.905Z,1.2
2023-03-25T08:58:27.201Z,1.2
2023-03-25T08:59:35.758Z,3.2
2023-03-25T09:00:44.067Z,3.2
2023-03-25T09:01:53.916Z,3.2
2023-03-25T09:03:00.985Z,2.3
2023-03-25T09:04:09.213Z,2.3
2023-03-25T09:05:17.552Z,2.3
2023-03-25T09:06:26.057Z,2
2023-03-25T09:07:34.357Z,2
2023-03-25T09:08:42.656Z,2
2023-03-25T09:09:51.168Z,4.1
2023-03-25T09:10:59.480Z,4.1
2023-03-25T09:12:07.777Z,4.1
2023-03-25T09:13:16.336Z,3.7
2023-03-25T09:14:24.613Z,3.7
2023-03-25T09:15:32.946Z,3.7
2023-03-25T09:16:41.422Z,3.2
2023-03-25T09:17:49.825Z,3.2
2023-03-25T09:18:58.024Z,3.2
2023-03-25T09:20:06.538Z,3.9
2023-03-25T09:21:14.848Z,3.9
2023-03-25T09:22:23.155Z,3.9
2023-03-25T09:23:31.659Z,4.7
2023-03-25T09:24:39.973Z,4.7
2023-03-25T09:25:48.422Z,4.7
2023-03-25T09:26:56.768Z,3.6
2023-03-25T09:28:05.071Z,3.6
2023-03-25T09:29:13.396Z,3.6
2023-03-25T09:30:21.885Z,12.3
2023-03-25T09:31:30.258Z,12.3
2023-03-25T09:32:38.504Z,12.3
2023-03-25T09:33:46.997Z,1.3
2023-03-25T09:34:55.329Z,1.3
2023-03-25T09:36:03.622Z,1.3
2023-03-25T09:37:12.112Z,0.8
2023-03-25T09:38:20.407Z,0.8
2023-03-25T09:39:28.713Z,0.8
2023-03-25T09:40:37.207Z,0.8
2023-03-25T09:41:45.506Z,0.8
2023-03-25T09:42:53.824Z,0.8
2023-03-25T09:44:02.329Z,3.4
2023-03-25T09:45:12.334Z,3.4
2023-03-25T09:46:18.998Z,3.4
2023-03-25T09:47:27.537Z,2
2023-03-25T09:48:35.815Z,2
2023-03-25T09:49:44.114Z,2
2023-03-25T09:50:52.641Z,0.9
2023-03-25T09:52:00.932Z,0.9
2023-03-25T09:53:09.220Z,0.9
2023-03-25T09:54:17.738Z,0.7
2023-03-25T09:55:26.067Z,0.7
2023-03-25T09:56:35.750Z,0.7
2023-03-25T09:57:42.893Z,1.2
2023-03-25T09:58:51.204Z,1.2
2023-03-25T09:59:59.493Z,1.2
2023-03-25T10:01:08.071Z,1.8
2023-03-25T10:02:16.326Z,1.8
2023-03-25T10:03:24.615Z,1.8
2023-03-25T10:04:33.130Z,1.1
2023-03-25T10:05:41.433Z,1.1
2023-03-25T10:06:49.733Z,1.1
2023-03-25T10:07:58.258Z,1.2
2023-03-25T10:09:06.564Z,1.2
2023-03-25T10:10:14.869Z,1.2
2023-03-25T10:11:23.385Z,1.1
2023-03-25T10:12:31.690Z,1.1
2023-03-25T10:13:39.986Z,1.1
2023-03-25T10:14:48.498Z,2
2023-03-25T10:15:56.829Z,2
2023-03-25T10:17:05.118Z,2
2023-03-25T10:18:13.594Z,1.7
2023-03-25T10:19:21.918Z,1.7
2023-03-25T10:20:30.227Z,1.7
2023-03-25T10:21:38.730Z,1.7
2023-03-25T10:22:47.034Z,1.7
2023-03-25T10:23:55.348Z,1.7
2023-03-25T10:25:03.864Z,1.8
2023-03-25T10:26:12.160Z,1.8
2023-03-25T10:27:20.465Z,1.8
2023-03-25T10:28:28.974Z,1.9
2023-03-25T10:29:37.284Z,1.9
2023-03-25T10:30:45.594Z,1.9
2023-03-25T10:31:54.147Z,1.3
2023-03-25T10:33:02.493Z,1.3
2023-03-25T10:34:10.721Z,1.3
2023-03-25T10:35:19.309Z,2.5
2023-03-25T10:36:27.544Z,2.5
2023-03-25T10:37:35.859Z,2.5
2023-03-25T10:38:44.359Z,4.3
2023-03-25T10:39:52.675Z,4.3
2023-03-25T10:41:00.988Z,4.3
2023-03-25T10:42:09.491Z,1.1
2023-03-25T10:43:17.815Z,1.1
2023-03-25T10:44:26.104Z,1.1
2023-03-25T10:45:34.629Z,1
2023-03-25T10:46:42.911Z,1
2023-03-25T10:47:51.249Z,1
2023-03-25T10:48:59.746Z,1.3
2023-03-25T10:50:08.038Z,1.3
2023-03-25T10:51:16.352Z,1.3
2023-03-25T10:52:24.858Z,1.3
2023-03-25T10:53:33.159Z,1.3
2023-03-25T10:54:41.482Z,1.3
2023-03-25T10:55:50.106Z,1.7
2023-03-25T10:56:58.303Z,1.7
2023-03-25T10:58:06.595Z,1.7
2023-03-25T10:59:15.328Z,1.7
2023-03-25T11:00:23.440Z,1.7
2023-03-25T11:01:31.738Z,1.7
2023-03-25T11:02:40.279Z,1.7
2023-03-25T11:03:48.537Z,1.7
2023-03-25T11:04:56.868Z,1.7
2023-03-25T11:06:05.356Z,2
2023-03-25T11:07:13.657Z,2
2023-03-25T11:08:24.821Z,2
2023-03-25T11:09:30.604Z,1.5
2023-03-25T11:10:38.780Z,1.5
2023-03-25T11:11:47.112Z,1.5
2023-03-25T11:12:55.617Z,1.8
2023-03-25T11:14:03.902Z,1.8
2023-03-25T11:15:12.222Z,1.8
2023-03-25T11:16:20.763Z,1.2
2023-03-25T11:17:29.218Z,1.2
2023-03-25T11:18:39.162Z,1.2
2023-03-25T11:19:45.919Z,2.1
2023-03-25T11:20:54.238Z,2.1
2023-03-25T11:22:02.517Z,2.1
2023-03-25T11:23:11.025Z,1.4
2023-03-25T11:24:19.337Z,1.4
2023-03-25T11:25:27.650Z,1.4
2023-03-25T11:26:36.155Z,1.9
2023-03-25T11:27:44.464Z,1.9
2023-03-25T11:28:52.767Z,1.9
2023-03-25T11:30:01.305Z,1.6
2023-03-25T11:31:09.635Z,1.6
2023-03-25T11:32:17.915Z,1.6
2023-03-25T11:33:26.429Z,2.2
2023-03-25T11:34:34.769Z,2.2
2023-03-25T11:35:43.083Z,2.2
2023-03-25T11:36:51.598Z,2
2023-03-25T11:37:59.899Z,2
2023-03-25T11:39:09.596Z,2
2023-03-25T11:40:16.725Z,1.5
2023-03-25T11:41:25.008Z,1.5
2023-03-25T11:42:33.335Z,1.5
2023-03-25T11:43:41.849Z,1.5
2023-03-25T11:44:50.144Z,1.5
2023-03-25T11:45:58.479Z,1.5
2023-03-25T11:47:06.990Z,1.5
2023-03-25T11:48:15.319Z,1.5
2023-03-25T11:49:23.583Z,1.5
2023-03-25T11:50:32.128Z,3.7
2023-03-25T11:51:40.435Z,3.7
2023-03-25T11:52:48.784Z,3.7
2023-03-25T11:53:57.283Z,1.8
2023-03-25T11:55:05.609Z,1.8
2023-03-25T11:56:13.898Z,1.8
2023-03-25T11:57:22.415Z,1.6
2023-03-25T11:58:30.708Z,1.6
2023-03-25T11:59:39.035Z,1.6
2023-03-25T12:00:47.556Z,1.5
2023-03-25T12:01:55.850Z,1.5
2023-03-25T12:03:04.224Z,1.5
2023-03-25T12:04:12.673Z,1.9
2023-03-25T12:05:20.973Z,1.9
2023-03-25T12:06:29.285Z,1.9
2023-03-25T12:07:37.776Z,1.7
2023-03-25T12:08:46.104Z,1.7
2023-03-25T12:09:54.397Z,1.7
2023-03-25T12:11:02.915Z,1.2
2023-03-25T12:12:11.228Z,1.2
2023-03-25T12:13:19.533Z,1.2
2023-03-25T12:14:28.059Z,2.5
2023-03-25T12:15:36.360Z,2.5
2023-03-25T12:16:44.665Z,2.5
2023-03-25T12:17:53.181Z,1.8
2023-03-25T12:19:01.478Z,1.8
2023-03-25T12:20:09.787Z,1.8
2023-03-25T12:21:18.308Z,1.4
2023-03-25T12:22:26.629Z,1.4
2023-03-25T12:23:34.918Z,1.4
2023-03-25T12:24:43.464Z,1.1
2023-03-25T12:25:51.854Z,1.1
2023-03-25T12:27:00.064Z,1.1
2023-03-25T12:28:08.554Z,1.6
2023-03-25T12:29:16.861Z,1.6
2023-03-25T12:30:25.192Z,1.6
2023-03-25T12:31:33.790Z,1
2023-03-25T12:32:42.043Z,1
2023-03-25T12:33:50.366Z,1
2023-03-25T12:34:58.889Z,1
2023-03-25T12:36:07.187Z,1
2023-03-25T12:37:15.492Z,1
2023-03-25T12:38:24.000Z,0.5
2023-03-25T12:39:41.994Z,0.5
2023-03-25T12:40:40.635Z,0.5
2023-03-25T12:41:49.113Z,0.4
2023-03-25T12:42:57.434Z,0.4
2023-03-25T12:44:05.733Z,0.4
2023-03-25T12:45:14.264Z,0.2
2023-03-25T12:46:22.555Z,0.2
2023-03-25T12:47:30.895Z,0.2
2023-03-25T12:48:39.359Z,0.2
2023-03-25T12:49:47.675Z,0.2
2023-03-25T12:50:55.975Z,0.2
2023-03-25T12:52:04.499Z,0.1
2023-03-25T12:53:12.807Z,0.1
2023-03-25T12:54:21.095Z,0.1
2023-03-25T12:55:29.626Z,0.2
2023-03-25T12:56:38.037Z,0.2
2023-03-25T12:57:46.241Z,0.2
2023-03-25T12:58:54.769Z,0.1
2023-03-25T13:00:03.069Z,0.1
2023-03-25T13:01:11.385Z,0.1
2023-03-25T13:02:19.916Z,0.1
2023-03-25T13:03:28.227Z,0.1
2023-03-25T13:04:36.484Z,0.1
2023-03-25T13:05:44.988Z,0
2023-03-25T13:06:53.320Z,0
2023-03-25T13:08:01.617Z,0
2023-03-25T13:09:10.161Z,0.1
2023-03-25T13:10:18.523Z,0.1
2023-03-25T13:11:26.853Z,0.1
2023-03-25T13:12:35.460Z,0.2
2023-03-25T13:13:43.745Z,0.2
2023-03-25T13:14:52.104Z,0.2
2023-03-25T13:16:00.644Z,0.7
2023-03-25T13:17:08.996Z,0.7
2023-03-25T13:18:17.322Z,0.7
2023-03-25T13:19:25.889Z,23.299999
2023-03-25T13:20:34.240Z,23.299999
2023-03-25T13:21:42.572Z,23.299999
2023-03-25T13:22:51.100Z,3.6
2023-03-25T13:23:59.432Z,3.6
2023-03-25T13:25:07.748Z,3.6
2023-03-25T13:26:16.307Z,4.7
2023-03-25T13:27:24.640Z,4.7
2023-03-25T13:28:33.045Z,4.7
2023-03-25T13:29:41.572Z,6
2023-03-25T13:30:50.068Z,6
2023-03-25T13:31:58.243Z,6
2023-03-25T13:33:06.855Z,2
2023-03-25T13:34:15.113Z,2
2023-03-25T13:35:23.526Z,2
2023-03-25T13:36:32.006Z,3
2023-03-25T13:37:40.337Z,3
2023-03-25T13:38:48.660Z,3
2023-03-25T13:39:57.211Z,3.8
2023-03-25T13:41:05.548Z,3.8
2023-03-25T13:42:13.885Z,3.8
2023-03-25T13:43:22.413Z,2.9
2023-03-25T13:44:30.761Z,2.9
2023-03-25T13:45:39.144Z,2.9
2023-03-25T13:46:47.635Z,8.6
2023-03-25T13:47:56.033Z,8.6
2023-03-25T13:49:04.356Z,8.6
2023-03-25T13:50:13.280Z,0.7
2023-03-25T13:51:21.255Z,0.7
2023-03-25T13:52:29.586Z,0.7
2023-03-25T13:53:38.113Z,0.6
2023-03-25T13:54:46.469Z,0.6
2023-03-25T13:55:54.926Z,0.6
2023-03-25T13:57:03.326Z,0.7
2023-03-25T13:58:11.676Z,0.7
2023-03-25T13:59:20.025Z,0.7
2023-03-25T14:00:28.620Z,3.3
2023-03-25T14:01:36.922Z,3.3
2023-03-25T14:02:45.284Z,3.3
2023-03-25T14:03:53.798Z,0.9
2023-03-25T14:05:02.230Z,0.9
2023-03-25T14:06:10.540Z,0.9
2023-03-25T14:07:19.089Z,0.4
2023-03-25T14:08:27.404Z,0.4
2023-03-25T14:09:35.737Z,0.4
2023-03-25T14:10:44.306Z,0.8
2023-03-25T14:11:52.636Z,0.8
2023-03-25T14:13:00.962Z,0.8
2023-03-25T14:14:09.505Z,0.7
2023-03-25T14:15:17.847Z,0.7
2023-03-25T14:16:26.214Z,0.7
2023-03-25T14:17:34.725Z,0.5
2023-03-25T14:18:43.054Z,0.5
2023-03-25T14:19:51.435Z,0.5
2023-03-25T14:20:59.947Z,3.2
2023-03-25T14:22:08.301Z,3.2
2023-03-25T14:23:16.632Z,3.2
2023-03-25T14:24:25.215Z,0.9
2023-03-25T14:25:33.612Z,0.9
2023-03-25T14:26:41.913Z,0.9
2023-03-25T14:27:50.466Z,1.1
2023-03-25T14:28:58.787Z,1.1
2023-03-25T14:30:07.148Z,1.1
2023-03-25T14:31:15.700Z,1.2
2023-03-25T14:32:24.074Z,1.2
2023-03-25T14:33:32.421Z,1.2
2023-03-25T14:34:40.971Z,1.2
2023-03-25T14:35:49.322Z,1.2
2023-03-25T14:36:57.641Z,1.2
2023-03-25T14:38:06.237Z,1.4
2023-03-25T14:39:14.549Z,1.4
2023-03-25T14:40:22.891Z,1.4
2023-03-25T14:41:31.460Z,1.1
2023-03-25T14:42:39.801Z,1.1
2023-03-25T14:43:48.190Z,1.1
2023-03-25T14:44:56.808Z,0.7
2023-03-25T14:46:05.210Z,0.7
2023-03-25T14:47:13.533Z,0.7
2023-03-25T14:48:25.406Z,0.9
2023-03-25T14:49:30.442Z,0.9
2023-03-25T14:50:38.843Z,0.9
2023-03-25T14:51:47.347Z,24.9
2023-03-25T14:52:55.680Z,24.9
2023-03-25T14:54:03.975Z,24.9
2023-03-25T14:55:12.520Z,4.8
2023-03-25T14:56:20.839Z,4.8
2023-03-25T14:57:29.173Z,4.8
2023-03-25T14:58:37.748Z,3.2
2023-03-25T14:59:46.101Z,3.2
2023-03-25T15:00:54.428Z,3.2
2023-03-25T15:02:02.982Z,5.1
2023-03-25T15:03:11.278Z,5.1
2023-03-25T15:04:19.646Z,5.1
2023-03-25T15:05:28.156Z,10.6
2023-03-25T15:38:56.612Z,0
2023-03-25T15:40:04.929Z,0
2023-03-25T15:41:13.262Z,0
2023-03-25T15:42:21.787Z,1.3
2023-03-25T15:43:30.169Z,1.3
2023-03-25T15:44:38.465Z,1.3
2023-03-25T15:45:47.029Z,1.6
2023-03-25T15:46:55.338Z,1.6
2023-03-25T15:48:03.704Z,1.6
2023-03-25T15:49:12.209Z,1.9
2023-03-25T15:50:20.563Z,1.9
2023-03-25T15:51:28.906Z,1.9
2023-03-25T15:52:37.425Z,3.9
2023-03-25T15:53:45.769Z,3.9
2023-03-25T15:54:54.192Z,3.9
2023-03-25T15:56:02.647Z,1.6
2023-03-25T15:57:11.000Z,1.6
2023-03-25T15:58:19.316Z,1.6
2023-03-25T15:59:27.853Z,2.9
2023-03-25T16:00:36.184Z,2.9
2023-03-25T16:01:44.505Z,2.9
2023-03-25T16:02:53.094Z,7.5
2023-03-25T16:04:02.104Z,7.5
2023-03-25T16:05:10.452Z,7.5
2023-03-25T16:06:19.030Z,8.7
2023-03-25T16:07:27.381Z,8.7
2023-03-25T16:08:35.753Z,8.7
2023-03-25T16:09:44.306Z,2.6
2023-03-25T16:10:52.885Z,2.6
2023-03-25T16:12:00.984Z,2.6
2023-03-25T16:13:09.525Z,2
2023-03-25T16:14:17.879Z,2
2023-03-25T16:15:26.202Z,2
2023-03-25T16:16:34.812Z,2.9
2023-03-25T16:17:43.119Z,2.9
2023-03-25T16:18:51.492Z,2.9